Meteo Giornale » Osservazioni meteo Svizzera » Locarno

ore: 18:50 - Osservazioni Meteo Locarno
Lat. 46° 10' N Lon. 8° 53' E Alt. 600 metri s.l.m.

poco_nuvoloso Europe/Zurich

19 °C

Poco Nuvoloso

Temp. 24 Ore

6 °C

21 °C

Sud/Sud-Est

9.3 Km/h

Dew point 4 °C

Umidità 37 %

Visibilità  10 Km

Il sole sorge alle ore 07:06

Il sole tramonta alle ore 19:29

Data e Ora Cielo e Fenomeni T °C DP °C Um. % Pres. hPa Vis. km Vento km/h
Oggi h: 18:50 poco_nuvoloso Poco Nuvoloso 19 4 37 1012 10 S/SE 9.3
Oggi h: 17:50 poco_nuvoloso Poco Nuvoloso 21 -0 24 1011 10 S/SO 9.3
Oggi h: 16:50 nuvoloso Nuvoloso 21 -0 24 1011 10 N 3.7
Oggi h: 15:50 molto_nuvoloso Molto Nuvoloso 21 1 26 1011 10 N 9.3
Oggi h: 14:50 nuvoloso Nuvoloso 21 -0 24 1011 10 O/SO 9.3
Oggi h: 13:50 nuvoloso Nuvoloso 21 1 26 1011 10 N 7.4
Oggi h: 12:50 poco_nuvoloso Poco Nuvoloso 20 2 30 1011 10 S/SE 14.8
Oggi h: 11:50 poco_nuvoloso Poco Nuvoloso 19 1 29 1012 10 S/SE 16.7
Oggi h: 10:50 poco_nuvoloso Poco Nuvoloso 18 3 36 1012 10 N 5.5
Oggi h: 09:50 poco_nuvoloso Poco Nuvoloso 14 8 67 1012 10 N 5.5
Oggi h: 08:50 poco_nuvoloso Poco Nuvoloso 10 7 81 1013 10 N 1.8
Oggi h: 07:50 poco_nuvoloso Poco Nuvoloso 7 6 93 1013 10 N 3.7
Oggi h: 06:50 sereno Sereno 6 5 93 1013 10 N 0
Oggi h: 05:50 sereno Sereno 6 6 100 1013 10 N 0
Oggi h: 04:50 sereno Sereno 7 7 100 1013 10 N 0
Oggi h: 03:50 sereno Sereno 8 7 93 1013 10 N 0
Oggi h: 02:50 poco_nuvoloso Poco Nuvoloso 8 8 100 1014 10 N 0
Oggi h: 01:50 nuvoloso Nuvoloso 9 8 93 1014 10 N 0
Oggi h: 00:50 nuvoloso Nuvoloso 10 8 87 1015 10 E/NE 7.4
Ieri h: 23:50 nuvoloso Nuvoloso 10 8 87 1015 10 E 9.3
Ieri h: 22:50 molto_nuvoloso Molto Nuvoloso 11 9 87 1015 10 N 3.7
Ieri h: 21:50 coperto Coperto 12 8 76 1015 10 NE 7.4
Ieri h: 20:50 molto_nuvoloso Molto Nuvoloso 13 8 71 1015 10 E/NE 9.3
Ieri h: 19:50 poco_nuvoloso Poco Nuvoloso 13 8 71 1014 10 E/NE 11.1